createdAt,value
2023-01-30T00:02:01.158Z,16.50
2023-01-30T00:04:31.521Z,14.40
2023-01-30T00:07:01.959Z,14.17
2023-01-30T00:09:32.244Z,17.37
2023-01-30T00:12:02.624Z,16.93
2023-01-30T00:14:35.709Z,15.30
2023-01-30T00:17:05.967Z,16.23
2023-01-30T00:19:36.377Z,15.83
2023-01-30T00:22:06.654Z,16.20
2023-01-30T00:24:37.284Z,15.67
2023-01-30T00:27:07.814Z,15.52
2023-01-30T00:29:43.239Z,20.70
2023-01-30T00:32:14.589Z,16.80
2023-01-30T00:34:44.898Z,16.33
2023-01-30T00:37:15.232Z,15.07
2023-01-30T00:39:45.523Z,15.10
2023-01-30T00:42:28.304Z,14.73
2023-01-30T00:45:19.562Z,18.17
2023-01-30T00:47:51.653Z,15.77
2023-01-30T00:50:22.460Z,15.87
2023-01-30T00:52:52.803Z,17.30
2023-01-30T00:55:23.227Z,15.57
2023-01-30T00:57:53.608Z,15.30
2023-01-30T01:00:26.588Z,17.13
2023-01-30T01:02:56.950Z,19.27
2023-01-30T01:05:27.357Z,18.63
2023-01-30T01:07:57.719Z,19.77
2023-01-30T01:10:28.102Z,16.37
2023-01-30T01:12:58.389Z,17.77
2023-01-30T01:15:31.639Z,16.53
2023-01-30T01:18:03.495Z,18.97
2023-01-30T01:20:34.321Z,17.17
2023-01-30T01:23:06.451Z,17.30
2023-01-30T01:25:36.741Z,16.60
2023-01-30T01:28:07.803Z,18.50
2023-01-30T01:30:41.349Z,17.73
2023-01-30T01:33:14.145Z,18.70
2023-01-30T01:35:45.048Z,20.98
2023-01-30T01:38:15.408Z,18.73
2023-01-30T01:41:01.906Z,20.20
2023-01-30T01:43:35.912Z,19.67
2023-01-30T01:46:14.845Z,20.37
2023-01-30T01:48:50.244Z,20.10
2023-01-30T01:51:25.619Z,17.93
2023-01-30T01:54:00.988Z,17.20
2023-01-30T01:56:32.716Z,19.10
2023-01-30T01:59:09.156Z,17.87
2023-01-30T02:01:42.232Z,18.33
2023-01-30T02:04:35.147Z,19.63
2023-01-30T02:07:05.712Z,20.17
2023-01-30T02:09:36.247Z,18.85
2023-01-30T02:12:08.631Z,17.25
2023-01-30T02:14:40.709Z,17.53
2023-01-30T02:17:13.707Z,16.43
2023-01-30T02:19:54.699Z,19.37
2023-01-30T02:22:59.567Z,16.73
2023-01-30T02:25:56.644Z,17.00
2023-01-30T02:29:34.102Z,18.33
2023-01-30T02:32:14.105Z,17.43
2023-01-30T02:34:53.599Z,18.50
2023-01-30T02:37:39.796Z,16.90
2023-01-30T02:40:32.843Z,15.27
2023-01-30T02:43:11.665Z,19.43
2023-01-30T02:45:53.653Z,15.23
2023-01-30T02:48:33.655Z,15.57
2023-01-30T02:51:08.581Z,15.47
2023-01-30T02:53:40.743Z,15.87
2023-01-30T02:56:11.516Z,16.83
2023-01-30T02:58:46.005Z,16.70
2023-01-30T03:02:00.400Z,16.57
2023-01-30T03:04:55.651Z,15.27
2023-01-30T03:07:40.371Z,18.53
2023-01-30T03:10:20.161Z,16.47
2023-01-30T03:13:06.055Z,15.63
2023-01-30T03:15:43.952Z,17.83
2023-01-30T03:18:14.522Z,14.90
2023-01-30T03:20:47.826Z,16.35
2023-01-30T03:23:18.223Z,15.40
2023-01-30T03:25:50.922Z,13.05
2023-01-30T03:28:24.398Z,12.73
2023-01-30T03:30:54.897Z,15.87
2023-01-30T03:33:25.304Z,16.30
2023-01-30T03:35:58.743Z,17.85
2023-01-30T03:38:29.169Z,16.20
2023-01-30T03:40:59.577Z,15.67
2023-01-30T03:43:30.249Z,16.53
2023-01-30T03:46:00.679Z,14.63
2023-01-30T03:48:32.099Z,14.70
2023-01-30T03:51:05.055Z,15.97
2023-01-30T03:53:35.378Z,18.40
2023-01-30T03:56:05.833Z,16.93
2023-01-30T03:58:38.459Z,15.20
2023-01-30T04:01:20.249Z,16.30
2023-01-30T04:03:51.207Z,14.95
2023-01-30T04:06:24.388Z,16.38
2023-01-30T04:08:56.305Z,17.67
2023-01-30T04:11:50.468Z,13.60
2023-01-30T04:14:21.872Z,16.17
2023-01-30T04:17:18.251Z,15.60
2023-01-30T04:20:11.095Z,14.60
2023-01-30T04:22:48.118Z,16.30
2023-01-30T04:25:20.532Z,15.30
2023-01-30T04:27:51.156Z,14.30
2023-01-30T04:30:25.223Z,16.27
2023-01-30T04:33:02.409Z,16.00
2023-01-30T04:35:32.726Z,14.37
2023-01-30T04:38:05.822Z,14.80
2023-01-30T04:40:36.181Z,13.57
2023-01-30T04:43:06.589Z,12.90
2023-01-30T04:45:39.338Z,16.73
2023-01-30T04:48:09.745Z,12.87
2023-01-30T04:50:40.268Z,15.25
2023-01-30T04:53:13.780Z,12.93
2023-01-30T04:55:44.149Z,13.47
2023-01-30T04:58:14.580Z,14.70
2023-01-30T05:00:44.987Z,12.87
2023-01-30T05:03:15.407Z,13.87
2023-01-30T05:05:46.339Z,15.20
2023-01-30T05:08:19.531Z,15.50
2023-01-30T05:10:49.767Z,14.43
2023-01-30T05:13:20.046Z,13.03
2023-01-30T05:15:50.450Z,12.37
2023-01-30T05:18:20.752Z,14.53
2023-01-30T05:20:51.080Z,14.47
2023-01-30T05:23:23.984Z,14.70
2023-01-30T05:25:54.256Z,11.90
2023-01-30T05:28:24.787Z,15.13
2023-01-30T05:30:55.242Z,14.60
2023-01-30T05:33:25.547Z,13.23
2023-01-30T05:35:55.820Z,12.33
2023-01-30T05:38:29.921Z,12.30
2023-01-30T05:41:03.977Z,11.80
2023-01-30T05:43:35.443Z,12.13
2023-01-30T05:46:08.839Z,12.87
2023-01-30T05:48:39.214Z,13.17
2023-01-30T05:51:10.288Z,11.37
2023-01-30T05:53:43.314Z,10.95
2023-01-30T05:56:13.594Z,10.33
2023-01-30T05:58:43.868Z,12.03
2023-01-30T06:01:16.162Z,12.95
2023-01-30T06:03:46.498Z,12.67
2023-01-30T06:06:16.937Z,11.63
2023-01-30T06:08:50.175Z,12.37
2023-01-30T06:11:20.832Z,10.63
2023-01-30T06:13:51.201Z,11.43
2023-01-30T06:16:22.588Z,16.10
2023-01-30T06:18:52.901Z,13.00
2023-01-30T06:21:23.326Z,12.37
2023-01-30T06:23:56.205Z,10.13
2023-01-30T06:26:26.563Z,12.80
2023-01-30T06:28:56.863Z,12.60
2023-01-30T06:31:27.262Z,12.10
2023-01-30T06:33:57.555Z,11.70
2023-01-30T06:36:28.056Z,11.53
2023-01-30T06:39:01.058Z,13.77
2023-01-30T06:41:31.366Z,12.67
2023-01-30T06:44:01.653Z,8.90
2023-01-30T06:46:31.931Z,10.43
2023-01-30T06:49:02.190Z,11.07
2023-01-30T06:51:32.637Z,13.07
2023-01-30T06:54:05.516Z,11.27
2023-01-30T06:56:36.209Z,10.53
2023-01-30T06:59:06.643Z,10.98
2023-01-30T07:01:37.538Z,10.97
2023-01-30T07:04:08.045Z,10.43
2023-01-30T07:06:40.252Z,8.27
2023-01-30T07:09:13.545Z,10.77
2023-01-30T07:11:43.885Z,9.83
2023-01-30T07:14:14.517Z,10.40
2023-01-30T07:16:45.055Z,10.82
2023-01-30T07:19:15.706Z,8.60
2023-01-30T07:21:46.119Z,9.23
2023-01-30T07:24:19.532Z,9.93
2023-01-30T07:26:51.486Z,9.90
2023-01-30T07:29:22.023Z,9.00
2023-01-30T07:31:52.368Z,12.43
2023-01-30T07:34:22.812Z,9.20
2023-01-30T07:36:53.075Z,8.83
2023-01-30T07:39:26.137Z,6.87
2023-01-30T07:41:57.033Z,9.07
2023-01-30T07:44:28.596Z,8.20
2023-01-30T07:46:58.884Z,10.50
2023-01-30T07:49:29.731Z,8.27
2023-01-30T07:52:00.127Z,7.07
2023-01-30T07:54:33.019Z,6.50
2023-01-30T07:57:03.457Z,7.93
2023-01-30T07:59:33.713Z,6.93
2023-01-30T08:02:04.031Z,6.90
2023-01-30T08:04:34.311Z,9.33
2023-01-30T08:07:04.904Z,6.07
2023-01-30T08:09:37.885Z,7.10
2023-01-30T08:12:08.676Z,6.20
2023-01-30T08:14:39.021Z,7.10
2023-01-30T08:17:09.434Z,6.20
2023-01-30T08:19:39.769Z,5.90
2023-01-30T08:22:10.161Z,7.40
2023-01-30T08:24:43.345Z,7.43
2023-01-30T08:27:13.700Z,6.03
2023-01-30T08:29:44.002Z,6.00
2023-01-30T08:32:15.839Z,6.87
2023-01-30T08:34:46.205Z,6.93
2023-01-30T08:37:16.581Z,7.37
2023-01-30T08:39:49.590Z,7.90
2023-01-30T08:42:19.909Z,7.33
2023-01-30T08:44:50.310Z,7.20
2023-01-30T08:47:20.698Z,8.53
2023-01-30T08:49:51.511Z,8.98
2023-01-30T08:52:21.968Z,6.13
2023-01-30T08:54:54.922Z,10.63
2023-01-30T08:57:25.464Z,8.93
2023-01-30T08:59:55.773Z,6.87
2023-01-30T09:02:26.032Z,6.63
2023-01-30T09:04:56.335Z,6.93
2023-01-30T09:07:28.886Z,5.37
2023-01-30T09:10:01.962Z,5.43
2023-01-30T09:12:32.787Z,5.97
2023-01-30T09:15:03.112Z,4.90
2023-01-30T09:17:33.378Z,5.73
2023-01-30T09:20:03.750Z,5.57
2023-01-30T09:22:34.041Z,5.10
2023-01-30T09:25:08.290Z,5.23
2023-01-30T09:27:38.613Z,5.37
2023-01-30T09:30:11.412Z,7.30
2023-01-30T09:32:41.752Z,6.23
2023-01-30T09:35:12.183Z,5.50
2023-01-30T09:37:49.997Z,5.03
2023-01-30T09:40:27.226Z,5.97
2023-01-30T09:43:26.438Z,5.70
2023-01-30T09:46:20.008Z,5.50
2023-01-30T09:49:02.572Z,5.20
2023-01-30T09:51:50.526Z,4.57
2023-01-30T09:54:25.759Z,5.73
2023-01-30T09:57:21.965Z,5.40
2023-01-30T10:00:01.629Z,5.13
2023-01-30T10:02:51.124Z,5.77
2023-01-30T10:05:21.961Z,5.55
2023-01-30T10:08:09.782Z,5.10
2023-01-30T10:11:00.798Z,5.20
2023-01-30T10:14:12.968Z,5.05
2023-01-30T10:16:54.548Z,4.60
2023-01-30T10:19:53.183Z,5.77
2023-01-30T10:22:42.030Z,4.07
2023-01-30T10:25:28.353Z,4.17
2023-01-30T10:28:04.687Z,5.00
2023-01-30T10:30:37.989Z,6.30
2023-01-30T10:33:15.452Z,4.83
2023-01-30T10:35:47.372Z,4.40
2023-01-30T10:38:23.739Z,5.20
2023-01-30T10:41:04.397Z,4.83
2023-01-30T10:43:41.204Z,5.25
2023-01-30T10:46:29.975Z,5.43
2023-01-30T10:49:04.501Z,4.77
2023-01-30T10:51:50.096Z,5.73
2023-01-30T10:54:28.446Z,5.80
2023-01-30T10:57:10.295Z,4.63
2023-01-30T10:59:56.302Z,7.27
2023-01-30T11:02:43.458Z,5.80
2023-01-30T11:05:20.146Z,8.87
2023-01-30T11:07:51.648Z,7.63
2023-01-30T11:15:27.006Z,5.40
2023-01-30T11:18:50.916Z,5.28
2023-01-30T11:21:06.991Z,6.00
2023-01-30T11:23:39.603Z,5.90
2023-01-30T11:26:11.832Z,5.83
2023-01-30T11:28:48.688Z,6.97
2023-01-30T11:31:39.995Z,7.60
2023-01-30T11:34:21.180Z,7.03
2023-01-30T11:36:52.696Z,6.57
2023-01-30T11:39:31.878Z,6.77
2023-01-30T11:42:05.950Z,5.20
2023-01-30T11:44:39.422Z,5.00
2023-01-30T11:47:15.621Z,7.57
2023-01-30T11:50:07.878Z,8.80
2023-01-30T11:52:45.220Z,6.57
2023-01-30T11:55:19.681Z,6.47
2023-01-30T11:57:55.717Z,6.80
2023-01-30T12:00:30.527Z,8.87
2023-01-30T12:03:08.667Z,6.60
2023-01-30T12:05:45.114Z,8.50
2023-01-30T12:08:41.073Z,6.23
2023-01-30T12:11:32.033Z,7.47
2023-01-30T12:14:25.624Z,5.80
2023-01-30T12:17:14.206Z,6.33
2023-01-30T12:19:58.973Z,6.13
2023-01-30T12:22:41.035Z,7.07
2023-01-30T12:25:18.957Z,5.60
2023-01-30T12:33:10.076Z,6.07
2023-01-30T12:35:59.241Z,6.17
2023-01-30T12:38:59.120Z,6.63
2023-01-30T12:41:47.333Z,4.60
2023-01-30T12:44:40.301Z,9.97
2023-01-30T12:47:34.679Z,5.40
2023-01-30T12:50:23.951Z,4.80
2023-01-30T12:53:27.764Z,6.10
2023-01-30T12:56:22.779Z,7.15
2023-01-30T12:59:00.203Z,5.63
2023-01-30T13:01:38.319Z,5.83
2023-01-30T13:04:19.278Z,5.30
2023-01-30T13:07:09.603Z,5.60
2023-01-30T13:09:57.602Z,6.03
2023-01-30T13:12:41.321Z,5.33
2023-01-30T13:15:25.051Z,7.27
2023-01-30T13:18:07.691Z,6.50
2023-01-30T13:21:00.357Z,6.10
2023-01-30T13:23:44.192Z,4.87
2023-01-30T13:26:19.734Z,5.53
2023-01-30T13:28:59.140Z,6.07
2023-01-30T13:31:35.999Z,6.20
2023-01-30T13:34:10.515Z,7.10
2023-01-30T13:36:48.951Z,5.57
2023-01-30T13:39:27.545Z,8.17
2023-01-30T13:42:00.912Z,7.38
2023-01-30T13:44:39.414Z,7.73
2023-01-30T13:47:28.163Z,6.70
2023-01-30T13:50:18.564Z,6.67
2023-01-30T13:52:56.167Z,8.47
2023-01-30T13:55:34.830Z,7.73
2023-01-30T13:58:17.799Z,5.67
2023-01-30T14:00:59.073Z,5.40
2023-01-30T14:03:33.349Z,5.70
2023-01-30T14:06:41.495Z,7.95
2023-01-30T14:09:28.425Z,8.20
2023-01-30T14:12:06.938Z,15.10
2023-01-30T14:14:40.824Z,6.88
2023-01-30T14:17:16.378Z,11.17
2023-01-30T14:19:58.484Z,7.67
2023-01-30T14:22:36.980Z,7.00
2023-01-30T14:25:52.413Z,6.23
2023-01-30T14:28:53.696Z,8.05
2023-01-30T14:31:54.457Z,7.35
2023-01-30T14:35:22.903Z,6.82
2023-01-30T14:38:10.003Z,9.43
2023-01-30T14:40:51.672Z,6.53
2023-01-30T14:43:55.200Z,7.80
2023-01-30T14:46:55.760Z,7.20
2023-01-30T14:49:46.647Z,6.55
2023-01-30T14:52:39.458Z,6.13
2023-01-30T14:55:22.363Z,6.17
2023-01-30T14:57:59.091Z,6.73
2023-01-30T15:00:34.638Z,6.83
2023-01-30T15:03:11.559Z,4.93
2023-01-30T15:05:47.329Z,5.23
2023-01-30T15:08:25.213Z,4.80
2023-01-30T15:11:15.595Z,9.30
2023-01-30T15:13:58.016Z,5.87
2023-01-30T15:17:03.061Z,6.00
2023-01-30T15:20:04.033Z,7.37
2023-01-30T15:22:47.626Z,7.93
2023-01-30T15:25:36.596Z,10.93
2023-01-30T15:28:23.712Z,13.33
2023-01-30T15:31:12.655Z,8.20
2023-01-30T15:33:51.411Z,5.70
2023-01-30T15:36:30.289Z,9.97
2023-01-30T15:39:06.495Z,6.80
2023-01-30T15:41:43.283Z,7.75
2023-01-30T15:44:45.522Z,11.48
2023-01-30T15:47:53.829Z,13.13
2023-01-30T15:50:24.599Z,6.60
2023-01-30T15:52:56.690Z,6.45
2023-01-30T15:55:30.850Z,8.60
2023-01-30T15:58:08.309Z,5.70
2023-01-30T16:00:44.204Z,11.07
2023-01-30T16:03:20.255Z,8.10
2023-01-30T16:05:52.263Z,6.95
2023-01-30T16:08:26.016Z,8.70
2023-01-30T16:10:56.736Z,9.93
2023-01-30T16:13:33.407Z,6.75
2023-01-30T16:16:12.774Z,9.35
2023-01-30T16:18:50.692Z,8.15
2023-01-30T16:21:24.850Z,10.98
2023-01-30T16:23:59.409Z,10.10
2023-01-30T16:26:30.306Z,9.77
2023-01-30T16:29:09.070Z,9.15
2023-01-30T16:31:42.630Z,8.70
2023-01-30T16:34:31.577Z,11.32
2023-01-30T16:37:08.627Z,6.43
2023-01-30T16:39:40.848Z,5.88
2023-01-30T16:42:28.353Z,7.57
2023-01-30T16:45:39.051Z,10.52
2023-01-30T16:48:33.590Z,8.57
2023-01-30T16:51:27.192Z,9.07
2023-01-30T16:54:04.993Z,8.13
2023-01-30T16:56:37.243Z,9.75
2023-01-30T16:59:07.765Z,8.18
2023-01-30T17:01:43.573Z,10.32
2023-01-30T17:04:22.836Z,11.07
2023-01-30T17:07:00.213Z,9.18
2023-01-30T17:09:47.537Z,9.15
2023-01-30T17:12:40.363Z,9.02
2023-01-30T17:15:36.495Z,13.60
2023-01-30T17:18:13.143Z,11.48
2023-01-30T17:20:51.370Z,8.35
2023-01-30T17:23:24.063Z,8.20
2023-01-30T17:25:54.395Z,9.82
2023-01-30T17:28:24.693Z,9.93
2023-01-30T17:30:55.280Z,8.80
2023-01-30T17:33:28.747Z,5.63
2023-01-30T17:35:59.260Z,9.30
2023-01-30T17:38:29.761Z,9.70
2023-01-30T17:41:02.191Z,10.40
2023-01-30T17:43:32.519Z,9.93
2023-01-30T17:46:04.083Z,10.37
2023-01-30T17:48:37.021Z,9.73
2023-01-30T17:51:07.968Z,8.88
2023-01-30T17:53:38.399Z,9.43
2023-01-30T17:56:17.014Z,9.18
2023-01-30T17:58:47.317Z,9.85
2023-01-30T18:01:19.243Z,15.27
2023-01-30T18:03:52.302Z,9.98
2023-01-30T18:06:22.740Z,8.27
2023-01-30T18:08:53.111Z,6.70
2023-01-30T18:11:23.593Z,7.10
2023-01-30T18:13:54.096Z,13.70
2023-01-30T18:16:31.031Z,11.77
2023-01-30T18:19:06.754Z,9.23
2023-01-30T18:21:40.035Z,19.38
2023-01-30T18:24:11.641Z,18.20
2023-01-30T18:26:42.249Z,23.30
2023-01-30T18:29:13.209Z,10.02
2023-01-30T18:31:44.278Z,8.65
2023-01-30T18:34:17.584Z,11.50
2023-01-30T18:36:48.279Z,8.25
2023-01-30T18:39:18.824Z,13.85
2023-01-30T18:41:49.221Z,11.93
2023-01-30T18:44:20.063Z,10.53
2023-01-30T18:46:52.574Z,9.40
2023-01-30T18:49:25.503Z,12.95
2023-01-30T18:51:55.883Z,10.68
2023-01-30T18:54:26.311Z,14.17
2023-01-30T18:56:57.229Z,9.77
2023-01-30T18:59:27.945Z,9.73
2023-01-30T19:01:58.279Z,6.97
2023-01-30T19:04:31.183Z,9.50
2023-01-30T19:07:01.644Z,13.50
2023-01-30T19:09:32.064Z,6.23
2023-01-30T19:12:14.745Z,9.43
2023-01-30T19:14:45.099Z,7.97
2023-01-30T19:17:16.523Z,7.83
2023-01-30T19:19:49.420Z,16.42
2023-01-30T19:22:19.779Z,11.60
2023-01-30T19:24:50.106Z,10.00
2023-01-30T19:27:21.097Z,7.77
2023-01-30T19:29:51.499Z,15.23
2023-01-30T19:32:22.294Z,9.40
2023-01-30T19:34:55.359Z,11.30
2023-01-30T19:37:25.707Z,16.10
2023-01-30T19:39:55.992Z,10.10
2023-01-30T19:42:26.352Z,8.65
2023-01-30T19:44:57.093Z,11.57
2023-01-30T19:47:27.619Z,10.52
2023-01-30T19:50:00.622Z,10.15
2023-01-30T19:52:30.983Z,12.73
2023-01-30T19:55:01.362Z,17.63
2023-01-30T19:57:31.668Z,13.90
2023-01-30T20:00:01.993Z,8.23
2023-01-30T20:02:34.892Z,10.02
2023-01-30T20:05:09.082Z,11.90
2023-01-30T20:07:40.005Z,9.15
2023-01-30T20:10:11.952Z,11.05
2023-01-30T20:12:42.416Z,11.20
2023-01-30T20:15:14.161Z,11.97
2023-01-30T20:17:44.470Z,12.95
2023-01-30T20:20:18.181Z,15.40
2023-01-30T20:22:48.707Z,10.90
2023-01-30T20:25:19.588Z,9.50
2023-01-30T20:27:49.979Z,13.15
2023-01-30T20:30:21.570Z,9.50
2023-01-30T20:32:53.904Z,15.05
2023-01-30T20:35:26.889Z,9.98
2023-01-30T20:37:57.176Z,12.18
2023-01-30T20:40:27.551Z,15.40
2023-01-30T20:42:57.956Z,11.37
2023-01-30T20:45:28.317Z,16.83
2023-01-30T20:47:58.705Z,8.13
2023-01-30T20:50:31.650Z,8.97
2023-01-30T20:53:02.037Z,12.98
2023-01-30T20:55:32.318Z,10.23
2023-01-30T20:58:02.818Z,13.83
2023-01-30T21:00:33.147Z,13.73
2023-01-30T21:03:03.513Z,14.47
2023-01-30T21:05:37.255Z,7.47
2023-01-30T21:08:08.181Z,12.40
2023-01-30T21:10:40.520Z,11.15
2023-01-30T21:13:10.856Z,8.85
2023-01-30T21:15:41.155Z,13.87
2023-01-30T21:18:11.476Z,7.70
2023-01-30T21:20:51.549Z,11.93
2023-01-30T21:23:21.871Z,13.55
2023-01-30T21:25:52.122Z,19.00
2023-01-30T21:28:22.497Z,14.03
2023-01-30T21:30:52.926Z,16.33
2023-01-30T21:33:23.345Z,10.67
2023-01-30T21:35:56.251Z,15.27
2023-01-30T21:38:39.170Z,10.63
2023-01-30T21:41:23.180Z,12.20
2023-01-30T21:43:53.513Z,12.38
2023-01-30T21:46:23.907Z,14.10
2023-01-30T21:48:54.309Z,11.80
2023-01-30T21:51:27.415Z,9.40
2023-01-30T21:54:00.182Z,10.65
2023-01-30T21:56:30.638Z,10.50
2023-01-30T21:59:02.499Z,8.43
2023-01-30T22:01:33.355Z,9.65
2023-01-30T22:04:05.663Z,12.27
2023-01-30T22:06:39.907Z,10.13
2023-01-30T22:09:11.161Z,13.10
2023-01-30T22:14:13.384Z,9.95
2023-01-30T22:16:45.004Z,12.75
2023-01-30T22:19:15.327Z,15.77
2023-01-30T22:21:48.286Z,11.93
2023-01-30T22:24:18.686Z,14.40
2023-01-30T22:26:49.252Z,10.33
2023-01-30T22:29:22.442Z,14.65
2023-01-30T22:31:52.792Z,16.25
2023-01-30T22:34:23.542Z,16.43
2023-01-30T22:36:56.601Z,18.63
2023-01-30T22:39:26.891Z,16.23
2023-01-30T22:41:57.256Z,14.77
2023-01-30T22:44:27.648Z,15.03
2023-01-30T22:46:58.239Z,13.83
2023-01-30T22:49:28.697Z,19.85
2023-01-30T22:52:01.873Z,22.58
2023-01-30T22:54:32.371Z,16.70
2023-01-30T22:57:04.806Z,10.27
2023-01-30T22:59:35.697Z,11.23
2023-01-30T23:02:10.326Z,19.48
2023-01-30T23:04:40.689Z,10.73
2023-01-30T23:07:16.291Z,10.30
2023-01-30T23:09:46.828Z,10.47
2023-01-30T23:12:29.596Z,14.45
2023-01-30T23:14:59.933Z,9.33
2023-01-30T23:17:45.808Z,11.50
2023-01-30T23:20:16.762Z,18.97
2023-01-30T23:22:54.455Z,15.32
2023-01-30T23:25:25.129Z,9.43
2023-01-30T23:27:55.502Z,10.60
2023-01-30T23:30:25.764Z,9.60
2023-01-30T23:32:56.125Z,10.50
2023-01-30T23:35:26.438Z,13.37
2023-01-30T23:38:11.715Z,12.80
2023-01-30T23:40:42.019Z,14.95
2023-01-30T23:43:12.745Z,16.33
2023-01-30T23:45:43.190Z,11.48
2023-01-30T23:48:13.788Z,9.17
2023-01-30T23:50:44.601Z,13.68
2023-01-30T23:53:17.580Z,23.05
2023-01-30T23:55:54.677Z,16.70
2023-01-30T23:58:25.263Z,11.68
